sensor_id;sensor_type;location;lat;lon;timestamp;pressure;altitude;pressure_sealevel;temperature;humidity
35489;BME280;21602;55.670;37.578;2024-03-22T00:01:26;99607.81;;;3.37;49.27
35489;BME280;21602;55.670;37.578;2024-03-22T00:03:51;99604.34;;;3.36;49.28
35489;BME280;21602;55.670;37.578;2024-03-22T00:06:17;99598.97;;;3.29;49.34
35489;BME280;21602;55.670;37.578;2024-03-22T00:08:46;99613.72;;;3.24;49.50
35489;BME280;21602;55.670;37.578;2024-03-22T00:11:11;99612.44;;;3.20;49.34
35489;BME280;21602;55.670;37.578;2024-03-22T00:13:37;99607.50;;;3.17;49.51
35489;BME280;21602;55.670;37.578;2024-03-22T00:16:03;99604.41;;;3.13;49.29
35489;BME280;21602;55.670;37.578;2024-03-22T00:18:29;99605.59;;;3.11;49.72
35489;BME280;21602;55.670;37.578;2024-03-22T00:20:55;99604.78;;;3.10;49.75
35489;BME280;21602;55.670;37.578;2024-03-22T00:23:21;99590.78;;;3.10;49.89
35489;BME280;21602;55.670;37.578;2024-03-22T00:25:46;99591.75;;;3.08;49.93
35489;BME280;21602;55.670;37.578;2024-03-22T00:28:12;99592.31;;;3.04;50.16
35489;BME280;21602;55.670;37.578;2024-03-22T00:30:38;99590.38;;;2.98;50.58
35489;BME280;21602;55.670;37.578;2024-03-22T00:33:04;99587.72;;;2.98;50.71
35489;BME280;21602;55.670;37.578;2024-03-22T00:35:30;99594.81;;;2.97;50.67
35489;BME280;21602;55.670;37.578;2024-03-22T00:37:55;99591.56;;;2.95;51.48
35489;BME280;21602;55.670;37.578;2024-03-22T00:40:21;99587.91;;;2.96;51.41
35489;BME280;21602;55.670;37.578;2024-03-22T00:42:47;99590.38;;;2.98;51.51
35489;BME280;21602;55.670;37.578;2024-03-22T00:45:12;99594.00;;;2.97;51.77
35489;BME280;21602;55.670;37.578;2024-03-22T00:47:38;99585.47;;;2.95;51.84
35489;BME280;21602;55.670;37.578;2024-03-22T00:50:04;99585.47;;;2.95;52.02
35489;BME280;21602;55.670;37.578;2024-03-22T00:52:30;99593.19;;;2.96;51.95
35489;BME280;21602;55.670;37.578;2024-03-22T00:54:56;99586.09;;;2.97;52.05
35489;BME280;21602;55.670;37.578;2024-03-22T00:57:22;99583.81;;;2.94;52.16
35489;BME280;21602;55.670;37.578;2024-03-22T00:59:48;99587.44;;;2.93;52.35
35489;BME280;21602;55.670;37.578;2024-03-22T01:02:13;99581.97;;;2.94;52.50
35489;BME280;21602;55.670;37.578;2024-03-22T01:04:39;99588.72;;;2.97;52.48
35489;BME280;21602;55.670;37.578;2024-03-22T01:07:05;99580.53;;;2.92;52.56
35489;BME280;21602;55.670;37.578;2024-03-22T01:09:31;99579.25;;;2.88;52.69
35489;BME280;21602;55.670;37.578;2024-03-22T01:11:57;99581.59;;;2.82;52.91
35489;BME280;21602;55.670;37.578;2024-03-22T01:14:22;99585.25;;;2.81;53.03
35489;BME280;21602;55.670;37.578;2024-03-22T01:16:48;99583.63;;;2.80;53.25
35489;BME280;21602;55.670;37.578;2024-03-22T01:19:14;99577.69;;;2.78;53.08
35489;BME280;21602;55.670;37.578;2024-03-22T01:21:40;99580.50;;;2.77;53.40
35489;BME280;21602;55.670;37.578;2024-03-22T01:24:06;99575.41;;;2.75;53.38
35489;BME280;21602;55.670;37.578;2024-03-22T01:26:32;99572.94;;;2.74;53.53
35489;BME280;21602;55.670;37.578;2024-03-22T01:28:57;99568.19;;;2.69;53.23
35489;BME280;21602;55.670;37.578;2024-03-22T01:31:23;99562.63;;;2.64;53.66
35489;BME280;21602;55.670;37.578;2024-03-22T01:33:49;99569.25;;;2.60;53.65
35489;BME280;21602;55.670;37.578;2024-03-22T01:36:17;99560.91;;;2.56;53.66
35489;BME280;21602;55.670;37.578;2024-03-22T01:38:42;99554.34;;;2.52;53.90
35489;BME280;21602;55.670;37.578;2024-03-22T01:41:11;99551.41;;;2.47;53.79
35489;BME280;21602;55.670;37.578;2024-03-22T01:43:37;99548.50;;;2.42;53.89
35489;BME280;21602;55.670;37.578;2024-03-22T01:46:02;99547.19;;;2.38;54.20
35489;BME280;21602;55.670;37.578;2024-03-22T01:48:30;99545.91;;;2.34;54.38
35489;BME280;21602;55.670;37.578;2024-03-22T01:50:57;99548.34;;;2.36;54.58
35489;BME280;21602;55.670;37.578;2024-03-22T01:53:23;99549.16;;;2.36;54.23
35489;BME280;21602;55.670;37.578;2024-03-22T01:55:49;99538.16;;;2.33;54.52
35489;BME280;21602;55.670;37.578;2024-03-22T01:58:15;99537.88;;;2.27;54.42
35489;BME280;21602;55.670;37.578;2024-03-22T02:00:41;99545.31;;;2.24;54.56
35489;BME280;21602;55.670;37.578;2024-03-22T02:03:08;99548.63;;;2.18;54.86
35489;BME280;21602;55.670;37.578;2024-03-22T02:05:34;99540.44;;;2.13;54.69
35489;BME280;21602;55.670;37.578;2024-03-22T02:08:00;99548.22;;;2.06;54.60
35489;BME280;21602;55.670;37.578;2024-03-22T02:10:26;99542.47;;;2.02;55.10
35489;BME280;21602;55.670;37.578;2024-03-22T02:12:52;99537.03;;;2.04;55.00
35489;BME280;21602;55.670;37.578;2024-03-22T02:15:18;99541.13;;;2.07;55.15
35489;BME280;21602;55.670;37.578;2024-03-22T02:17:44;99530.59;;;2.07;54.75
35489;BME280;21602;55.670;37.578;2024-03-22T02:20:10;99529.97;;;2.04;54.91
35489;BME280;21602;55.670;37.578;2024-03-22T02:22:38;99525.84;;;2.02;55.15
35489;BME280;21602;55.670;37.578;2024-03-22T02:25:04;99521.41;;;2.02;55.29
35489;BME280;21602;55.670;37.578;2024-03-22T02:27:30;99525.84;;;2.02;55.28
35489;BME280;21602;55.670;37.578;2024-03-22T02:29:56;99525.69;;;2.03;55.03
35489;BME280;21602;55.670;37.578;2024-03-22T02:32:22;99522.41;;;2.01;55.55
35489;BME280;21602;55.670;37.578;2024-03-22T02:34:47;99520.13;;;1.98;55.89
35489;BME280;21602;55.670;37.578;2024-03-22T02:37:13;99519.81;;;1.93;56.12
35489;BME280;21602;55.670;37.578;2024-03-22T02:39:39;99519.53;;;1.88;56.29
35489;BME280;21602;55.670;37.578;2024-03-22T02:42:05;99517.41;;;1.84;56.30
35489;BME280;21602;55.670;37.578;2024-03-22T02:44:31;99518.59;;;1.81;56.62
35489;BME280;21602;55.670;37.578;2024-03-22T02:46:57;99515.28;;;1.79;56.71
35489;BME280;21602;55.670;37.578;2024-03-22T02:49:23;99519.75;;;1.78;56.83
35489;BME280;21602;55.670;37.578;2024-03-22T02:51:50;99512.50;;;1.81;57.03
35489;BME280;21602;55.670;37.578;2024-03-22T02:54:15;99505.25;;;1.83;57.12
35489;BME280;21602;55.670;37.578;2024-03-22T02:56:41;99502.09;;;1.87;57.28
35489;BME280;21602;55.670;37.578;2024-03-22T02:59:07;99498.66;;;1.87;57.30
35489;BME280;21602;55.670;37.578;2024-03-22T03:01:33;99497.97;;;1.85;57.21
35489;BME280;21602;55.670;37.578;2024-03-22T03:03:58;99498.16;;;1.83;57.34
35489;BME280;21602;55.670;37.578;2024-03-22T03:06:24;99498.69;;;1.78;57.42
35489;BME280;21602;55.670;37.578;2024-03-22T03:08:50;99498.19;;;1.75;57.84
35489;BME280;21602;55.670;37.578;2024-03-22T03:11:16;99496.09;;;1.70;58.01
35489;BME280;21602;55.670;37.578;2024-03-22T03:13:41;99495.97;;;1.64;58.31
35489;BME280;21602;55.670;37.578;2024-03-22T03:16:07;99497.13;;;1.61;58.27
35489;BME280;21602;55.670;37.578;2024-03-22T03:18:33;99498.13;;;1.60;58.70
35489;BME280;21602;55.670;37.578;2024-03-22T03:20:59;99503.38;;;1.60;58.72
35489;BME280;21602;55.670;37.578;2024-03-22T03:23:25;99497.13;;;1.61;59.03
35489;BME280;21602;55.670;37.578;2024-03-22T03:25:51;99502.88;;;1.65;59.04
35489;BME280;21602;55.670;37.578;2024-03-22T03:28:17;99496.28;;;1.69;58.90
35489;BME280;21602;55.670;37.578;2024-03-22T03:30:43;99488.38;;;1.69;59.15
35489;BME280;21602;55.670;37.578;2024-03-22T03:33:09;99477.03;;;1.68;58.97
35489;BME280;21602;55.670;37.578;2024-03-22T03:35:35;99473.59;;;1.68;59.33
35489;BME280;21602;55.670;37.578;2024-03-22T03:38:03;99472.28;;;1.64;59.54
35489;BME280;21602;55.670;37.578;2024-03-22T03:40:29;99474.72;;;1.65;59.75
35489;BME280;21602;55.670;37.578;2024-03-22T03:42:55;99468.50;;;1.66;59.67
35489;BME280;21602;55.670;37.578;2024-03-22T03:45:21;99468.66;;;1.65;59.66
35489;BME280;21602;55.670;37.578;2024-03-22T03:47:46;99468.03;;;1.63;59.80
35489;BME280;21602;55.670;37.578;2024-03-22T03:50:12;99474.44;;;1.60;60.38
35489;BME280;21602;55.670;37.578;2024-03-22T03:52:38;99477.25;;;1.59;60.33
35489;BME280;21602;55.670;37.578;2024-03-22T03:55:04;99477.44;;;1.57;60.36
35489;BME280;21602;55.670;37.578;2024-03-22T03:57:30;99474.78;;;1.57;60.65
35489;BME280;21602;55.670;37.578;2024-03-22T03:59:56;99471.81;;;1.60;60.80
35489;BME280;21602;55.670;37.578;2024-03-22T04:02:21;99470.13;;;1.67;61.12
35489;BME280;21602;55.670;37.578;2024-03-22T04:04:47;99468.13;;;1.69;61.02
35489;BME280;21602;55.670;37.578;2024-03-22T04:07:13;99470.59;;;1.71;61.16
35489;BME280;21602;55.670;37.578;2024-03-22T04:09:39;99466.63;;;1.75;61.21
35489;BME280;21602;55.670;37.578;2024-03-22T04:12:05;99462.66;;;1.79;61.04
35489;BME280;21602;55.670;37.578;2024-03-22T04:14:33;99460.00;;;1.79;61.08
35489;BME280;21602;55.670;37.578;2024-03-22T04:16:59;99450.47;;;1.78;61.13
35489;BME280;21602;55.670;37.578;2024-03-22T04:19:25;99454.41;;;1.82;61.27
35489;BME280;21602;55.670;37.578;2024-03-22T04:21:51;99462.78;;;1.86;60.98
35489;BME280;21602;55.670;37.578;2024-03-22T04:24:17;99455.72;;;1.86;61.05
35489;BME280;21602;55.670;37.578;2024-03-22T04:26:42;99448.97;;;1.84;61.47
35489;BME280;21602;55.670;37.578;2024-03-22T04:29:08;99450.78;;;1.83;61.32
35489;BME280;21602;55.670;37.578;2024-03-22T04:31:34;99453.41;;;1.83;61.27
35489;BME280;21602;55.670;37.578;2024-03-22T04:34:00;99451.78;;;1.82;61.74
35489;BME280;21602;55.670;37.578;2024-03-22T04:36:26;99460.31;;;1.84;61.78
35489;BME280;21602;55.670;37.578;2024-03-22T04:38:51;99454.88;;;1.86;61.79
35489;BME280;21602;55.670;37.578;2024-03-22T04:41:20;99461.78;;;1.87;61.85
35489;BME280;21602;55.670;37.578;2024-03-22T04:43:45;99460.44;;;1.91;62.36
35489;BME280;21602;55.670;37.578;2024-03-22T04:46:11;99460.38;;;1.99;62.04
35489;BME280;21602;55.670;37.578;2024-03-22T04:51:40;99451.56;;;2.15;62.53
35489;BME280;21602;55.670;37.578;2024-03-22T04:54:23;99453.75;;;2.26;62.76
35489;BME280;21602;55.670;37.578;2024-03-22T04:57:03;99462.88;;;2.38;62.84
35489;BME280;21602;55.670;37.578;2024-03-22T05:00:00;99459.81;;;2.49;62.70
35489;BME280;21602;55.670;37.578;2024-03-22T05:02:29;99458.47;;;2.53;61.99
35489;BME280;21602;55.670;37.578;2024-03-22T05:05:01;99446.38;;;2.59;61.98
35489;BME280;21602;55.670;37.578;2024-03-22T05:07:38;99449.47;;;2.63;62.24
35489;BME280;21602;55.670;37.578;2024-03-22T05:10:10;99448.75;;;2.69;61.72
35489;BME280;21602;55.670;37.578;2024-03-22T05:12:36;99449.69;;;2.76;62.14
35489;BME280;21602;55.670;37.578;2024-03-22T05:15:05;99443.69;;;2.82;61.87
35489;BME280;21602;55.670;37.578;2024-03-22T05:17:32;99444.22;;;2.92;62.05
35489;BME280;21602;55.670;37.578;2024-03-22T05:20:05;99448.41;;;3.01;61.62
35489;BME280;21602;55.670;37.578;2024-03-22T05:22:39;99441.84;;;3.12;62.57
35489;BME280;21602;55.670;37.578;2024-03-22T05:25:06;99442.03;;;3.25;61.99
35489;BME280;21602;55.670;37.578;2024-03-22T05:28:01;99436.66;;;3.33;60.91
35489;BME280;21602;55.670;37.578;2024-03-22T05:30:30;99438.09;;;3.36;61.04
35489;BME280;21602;55.670;37.578;2024-03-22T05:32:56;99443.28;;;3.44;61.18
35489;BME280;21602;55.670;37.578;2024-03-22T05:35:24;99439.72;;;3.52;60.64
35489;BME280;21602;55.670;37.578;2024-03-22T05:37:55;99428.41;;;3.58;60.20
35489;BME280;21602;55.670;37.578;2024-03-22T05:40:24;99430.50;;;3.63;60.16
35489;BME280;21602;55.670;37.578;2024-03-22T05:42:49;99426.66;;;3.65;59.83
35489;BME280;21602;55.670;37.578;2024-03-22T05:45:18;99425.47;;;3.68;59.22
35489;BME280;21602;55.670;37.578;2024-03-22T05:48:10;99428.38;;;3.73;59.24
35489;BME280;21602;55.670;37.578;2024-03-22T05:50:36;99419.06;;;3.77;59.83
35489;BME280;21602;55.670;37.578;2024-03-22T05:53:06;99410.38;;;3.83;59.43
35489;BME280;21602;55.670;37.578;2024-03-22T05:55:38;99413.38;;;3.95;59.57
35489;BME280;21602;55.670;37.578;2024-03-22T06:00:47;99420.81;;;4.13;58.93
35489;BME280;21602;55.670;37.578;2024-03-22T06:03:24;99418.25;;;4.19;58.79
35489;BME280;21602;55.670;37.578;2024-03-22T06:06:01;99410.38;;;4.26;58.75
35489;BME280;21602;55.670;37.578;2024-03-22T06:08:27;99404.72;;;4.29;58.60
35489;BME280;21602;55.670;37.578;2024-03-22T06:11:00;99407.78;;;4.32;58.14
35489;BME280;21602;55.670;37.578;2024-03-22T06:13:26;99413.25;;;4.31;58.43
35489;BME280;21602;55.670;37.578;2024-03-22T06:15:54;99402.56;;;4.39;58.23
35489;BME280;21602;55.670;37.578;2024-03-22T06:18:20;99411.16;;;4.48;58.33
35489;BME280;21602;55.670;37.578;2024-03-22T06:20:50;99404.28;;;4.53;57.77
35489;BME280;21602;55.670;37.578;2024-03-22T06:23:18;99401.66;;;4.60;57.77
35489;BME280;21602;55.670;37.578;2024-03-22T06:25:54;99397.03;;;4.69;58.03
35489;BME280;21602;55.670;37.578;2024-03-22T06:28:22;99394.88;;;4.79;57.81
35489;BME280;21602;55.670;37.578;2024-03-22T06:30:54;99385.59;;;4.90;58.16
35489;BME280;21602;55.670;37.578;2024-03-22T06:33:22;99386.47;;;5.03;57.29
35489;BME280;21602;55.670;37.578;2024-03-22T06:35:52;99393.19;;;5.12;56.96
35489;BME280;21602;55.670;37.578;2024-03-22T06:38:19;99392.81;;;5.16;57.00
35489;BME280;21602;55.670;37.578;2024-03-22T06:40:53;99394.50;;;5.23;57.24
35489;BME280;21602;55.670;37.578;2024-03-22T06:43:21;99396.53;;;5.28;57.14
35489;BME280;21602;55.670;37.578;2024-03-22T06:45:56;99395.75;;;5.34;56.93
35489;BME280;21602;55.670;37.578;2024-03-22T06:48:24;99387.41;;;5.37;56.63
35489;BME280;21602;55.670;37.578;2024-03-22T06:50:53;99389.06;;;5.45;56.36
35489;BME280;21602;55.670;37.578;2024-03-22T06:53:24;99388.50;;;5.56;56.04
35489;BME280;21602;55.670;37.578;2024-03-22T06:55:55;99387.50;;;5.70;56.87
35489;BME280;21602;55.670;37.578;2024-03-22T06:58:29;99382.03;;;5.85;55.87
35489;BME280;21602;55.670;37.578;2024-03-22T07:00:55;99381.66;;;5.95;56.73
35489;BME280;21602;55.670;37.578;2024-03-22T07:03:21;99380.22;;;6.05;55.49
35489;BME280;21602;55.670;37.578;2024-03-22T07:05:47;99374.75;;;6.13;55.81
35489;BME280;21602;55.670;37.578;2024-03-22T07:08:13;99375.53;;;6.21;54.93
35489;BME280;21602;55.670;37.578;2024-03-22T07:10:39;99373.09;;;6.26;54.62
35489;BME280;21602;55.670;37.578;2024-03-22T07:13:06;99375.72;;;6.39;54.15
35489;BME280;21602;55.670;37.578;2024-03-22T07:15:31;99375.34;;;6.42;53.13
35489;BME280;21602;55.670;37.578;2024-03-22T07:17:58;99369.63;;;6.38;52.41
35489;BME280;21602;55.670;37.578;2024-03-22T07:20:25;99365.16;;;6.32;52.19
35489;BME280;21602;55.670;37.578;2024-03-22T07:22:50;99368.63;;;6.33;53.11
35489;BME280;21602;55.670;37.578;2024-03-22T07:25:17;99356.16;;;6.40;52.10
35489;BME280;21602;55.670;37.578;2024-03-22T07:27:43;99363.47;;;6.45;52.89
35489;BME280;21602;55.670;37.578;2024-03-22T07:30:09;99364.50;;;6.50;52.11
35489;BME280;21602;55.670;37.578;2024-03-22T07:32:35;99356.13;;;6.53;51.73
35489;BME280;21602;55.670;37.578;2024-03-22T07:35:04;99353.28;;;6.61;51.55
35489;BME280;21602;55.670;37.578;2024-03-22T07:37:30;99354.06;;;6.75;51.01
35489;BME280;21602;55.670;37.578;2024-03-22T07:39:55;99341.72;;;7.01;50.19
35489;BME280;21602;55.670;37.578;2024-03-22T07:42:21;99341.22;;;7.24;49.82
35489;BME280;21602;55.670;37.578;2024-03-22T07:44:47;99343.53;;;7.45;49.35
35489;BME280;21602;55.670;37.578;2024-03-22T07:47:13;99346.97;;;7.52;48.06
35489;BME280;21602;55.670;37.578;2024-03-22T07:49:39;99340.41;;;7.55;48.18
35489;BME280;21602;55.670;37.578;2024-03-22T07:52:05;99334.28;;;7.54;47.80
35489;BME280;21602;55.670;37.578;2024-03-22T07:54:31;99334.03;;;7.62;47.44
35489;BME280;21602;55.670;37.578;2024-03-22T07:56:57;99323.56;;;7.67;46.32
35489;BME280;21602;55.670;37.578;2024-03-22T07:59:23;99324.34;;;7.75;45.99
35489;BME280;21602;55.670;37.578;2024-03-22T08:01:49;99324.69;;;7.85;45.78
35489;BME280;21602;55.670;37.578;2024-03-22T08:04:15;99318.81;;;7.76;44.61
35489;BME280;21602;55.670;37.578;2024-03-22T08:06:41;99318.44;;;7.73;44.46
35489;BME280;21602;55.670;37.578;2024-03-22T08:09:09;99317.28;;;7.62;44.56
35489;BME280;21602;55.670;37.578;2024-03-22T08:11:35;99307.72;;;7.54;44.25
35489;BME280;21602;55.670;37.578;2024-03-22T08:14:00;99297.72;;;7.56;45.21
35489;BME280;21602;55.670;37.578;2024-03-22T08:16:29;99294.31;;;7.74;44.89
35489;BME280;21602;55.670;37.578;2024-03-22T08:18:56;99292.47;;;8.00;44.86
35489;BME280;21602;55.670;37.578;2024-03-22T08:21:23;99291.38;;;8.26;44.44
35489;BME280;21602;55.670;37.578;2024-03-22T08:23:50;99285.22;;;8.32;43.18
35489;BME280;21602;55.670;37.578;2024-03-22T08:26:16;99276.59;;;8.36;43.64
35489;BME280;21602;55.670;37.578;2024-03-22T08:28:42;99273.56;;;8.51;43.55
35489;BME280;21602;55.670;37.578;2024-03-22T08:31:08;99266.84;;;8.67;43.38
35489;BME280;21602;55.670;37.578;2024-03-22T08:33:33;99269.09;;;8.82;42.47
35489;BME280;21602;55.670;37.578;2024-03-22T08:35:59;99258.41;;;8.88;41.77
35489;BME280;21602;55.670;37.578;2024-03-22T08:38:26;99260.09;;;8.83;41.11
35489;BME280;21602;55.670;37.578;2024-03-22T08:40:52;99265.66;;;8.63;40.79
35489;BME280;21602;55.670;37.578;2024-03-22T08:43:18;99257.81;;;8.50;40.67
35489;BME280;21602;55.670;37.578;2024-03-22T08:45:44;99255.56;;;8.28;40.42
35489;BME280;21602;55.670;37.578;2024-03-22T08:48:09;99248.09;;;8.18;42.11
35489;BME280;21602;55.670;37.578;2024-03-22T08:50:35;99247.97;;;8.32;41.65
35489;BME280;21602;55.670;37.578;2024-03-22T08:53:01;99252.50;;;8.50;40.09
35489;BME280;21602;55.670;37.578;2024-03-22T08:55:32;99253.91;;;8.52;39.55
35489;BME280;21602;55.670;37.578;2024-03-22T08:57:58;99241.78;;;8.38;39.36
35489;BME280;21602;55.670;37.578;2024-03-22T09:00:24;99247.34;;;8.11;38.51
35489;BME280;21602;55.670;37.578;2024-03-22T09:02:49;99246.19;;;8.07;39.62
35489;BME280;21602;55.670;37.578;2024-03-22T09:05:15;99238.09;;;7.95;40.33
35489;BME280;21602;55.670;37.578;2024-03-22T09:07:42;99253.63;;;7.99;39.21
35489;BME280;21602;55.670;37.578;2024-03-22T09:10:08;99245.00;;;8.03;39.49
35489;BME280;21602;55.670;37.578;2024-03-22T09:12:34;99233.91;;;8.06;38.79
35489;BME280;21602;55.670;37.578;2024-03-22T09:15:00;99239.53;;;7.98;39.08
35489;BME280;21602;55.670;37.578;2024-03-22T09:17:30;99228.56;;;7.88;38.81
35489;BME280;21602;55.670;37.578;2024-03-22T09:19:56;99230.78;;;7.91;40.60
35489;BME280;21602;55.670;37.578;2024-03-22T09:22:22;99221.22;;;8.08;39.43
35489;BME280;21602;55.670;37.578;2024-03-22T09:24:48;99223.22;;;8.13;38.85
35489;BME280;21602;55.670;37.578;2024-03-22T09:27:15;99214.06;;;8.27;40.05
35489;BME280;21602;55.670;37.578;2024-03-22T09:29:41;99212.53;;;8.56;38.84
35489;BME280;21602;55.670;37.578;2024-03-22T09:32:09;99214.13;;;8.76;39.27
35489;BME280;21602;55.670;37.578;2024-03-22T09:34:35;99217.78;;;8.93;38.68
35489;BME280;21602;55.670;37.578;2024-03-22T09:37:01;99208.44;;;9.02;38.68
35489;BME280;21602;55.670;37.578;2024-03-22T09:39:27;99208.03;;;9.17;38.56
35489;BME280;21602;55.670;37.578;2024-03-22T09:41:57;99208.28;;;9.27;38.58
35489;BME280;21602;55.670;37.578;2024-03-22T09:44:23;99209.47;;;9.43;38.94
35489;BME280;21602;55.670;37.578;2024-03-22T09:46:50;99213.53;;;9.57;38.93
35489;BME280;21602;55.670;37.578;2024-03-22T09:49:17;99215.38;;;9.68;38.97
35489;BME280;21602;55.670;37.578;2024-03-22T09:51:44;99212.03;;;9.61;38.46
35489;BME280;21602;55.670;37.578;2024-03-22T09:54:12;99208.47;;;9.26;38.40
35489;BME280;21602;55.670;37.578;2024-03-22T09:56:39;99205.06;;;9.07;39.55
35489;BME280;21602;55.670;37.578;2024-03-22T09:59:08;99211.81;;;9.09;39.80
35489;BME280;21602;55.670;37.578;2024-03-22T10:01:34;99198.19;;;9.17;40.00
35489;BME280;21602;55.670;37.578;2024-03-22T10:04:00;99197.25;;;9.23;39.65
35489;BME280;21602;55.670;37.578;2024-03-22T10:06:27;99203.16;;;9.26;39.80
35489;BME280;21602;55.670;37.578;2024-03-22T10:08:54;99195.66;;;9.22;39.66
35489;BME280;21602;55.670;37.578;2024-03-22T10:11:20;99191.44;;;9.15;39.61
35489;BME280;21602;55.670;37.578;2024-03-22T10:13:46;99191.09;;;9.11;40.13
35489;BME280;21602;55.670;37.578;2024-03-22T10:16:16;99192.72;;;9.12;39.84
35489;BME280;21602;55.670;37.578;2024-03-22T10:18:45;99188.41;;;9.11;40.46
35489;BME280;21602;55.670;37.578;2024-03-22T10:21:10;99184.06;;;9.17;40.37
35489;BME280;21602;55.670;37.578;2024-03-22T10:23:36;99176.31;;;9.27;40.37
35489;BME280;21602;55.670;37.578;2024-03-22T10:26:02;99172.03;;;9.38;40.39
35489;BME280;21602;55.670;37.578;2024-03-22T10:28:29;99169.28;;;9.56;40.50
35489;BME280;21602;55.670;37.578;2024-03-22T10:30:55;99159.66;;;9.67;40.35
35489;BME280;21602;55.670;37.578;2024-03-22T10:33:21;99155.34;;;9.78;40.01
35489;BME280;21602;55.670;37.578;2024-03-22T10:35:53;99149.13;;;9.84;39.82
35489;BME280;21602;55.670;37.578;2024-03-22T10:38:22;99150.84;;;9.90;39.86
35489;BME280;21602;55.670;37.578;2024-03-22T10:40:48;99142.59;;;9.91;39.28
35489;BME280;21602;55.670;37.578;2024-03-22T10:43:16;99139.00;;;9.97;39.32
35489;BME280;21602;55.670;37.578;2024-03-22T10:45:42;99138.06;;;10.04;39.47
35489;BME280;21602;55.670;37.578;2024-03-22T10:48:17;99137.94;;;10.10;39.49
35489;BME280;21602;55.670;37.578;2024-03-22T10:50:46;99129.59;;;10.07;39.59
35489;BME280;21602;55.670;37.578;2024-03-22T10:53:18;99128.09;;;9.99;39.44
35489;BME280;21602;55.670;37.578;2024-03-22T10:55:47;99123.94;;;9.91;39.69
35489;BME280;21602;55.670;37.578;2024-03-22T10:58:18;99124.41;;;9.77;39.13
35489;BME280;21602;55.670;37.578;2024-03-22T11:00:46;99124.78;;;9.57;39.41
35489;BME280;21602;55.670;37.578;2024-03-22T11:03:13;99121.41;;;9.38;39.80
35489;BME280;21602;55.670;37.578;2024-03-22T11:05:49;99114.34;;;9.43;40.24
35489;BME280;21602;55.670;37.578;2024-03-22T11:08:28;99107.06;;;9.51;40.06
35489;BME280;21602;55.670;37.578;2024-03-22T11:10:56;99107.75;;;9.58;40.04
35489;BME280;21602;55.670;37.578;2024-03-22T11:13:23;99098.94;;;9.57;40.31
35489;BME280;21602;55.670;37.578;2024-03-22T11:15:50;99100.78;;;9.57;40.27
35489;BME280;21602;55.670;37.578;2024-03-22T11:18:16;99097.09;;;9.58;40.21
35489;BME280;21602;55.670;37.578;2024-03-22T11:20:43;99089.44;;;9.61;40.18
35489;BME280;21602;55.670;37.578;2024-03-22T11:23:13;99087.22;;;9.70;40.64
35489;BME280;21602;55.670;37.578;2024-03-22T11:25:39;99084.53;;;9.82;40.63
35489;BME280;21602;55.670;37.578;2024-03-22T11:28:05;99081.06;;;9.81;40.74
35489;BME280;21602;55.670;37.578;2024-03-22T11:30:32;99089.56;;;9.78;40.86
35489;BME280;21602;55.670;37.578;2024-03-22T11:33:02;99077.13;;;9.84;41.04
35489;BME280;21602;55.670;37.578;2024-03-22T11:35:29;99083.72;;;9.93;40.83
35489;BME280;21602;55.670;37.578;2024-03-22T11:37:55;99073.72;;;10.00;40.27
35489;BME280;21602;55.670;37.578;2024-03-22T11:40:23;99063.63;;;10.02;40.52
35489;BME280;21602;55.670;37.578;2024-03-22T11:42:51;99070.00;;;10.01;40.58
35489;BME280;21602;55.670;37.578;2024-03-22T11:45:18;99057.50;;;9.90;40.65
35489;BME280;21602;55.670;37.578;2024-03-22T11:47:46;99053.13;;;9.84;40.18
35489;BME280;21602;55.670;37.578;2024-03-22T11:50:12;99046.44;;;9.69;40.52
35489;BME280;21602;55.670;37.578;2024-03-22T11:52:45;99035.78;;;9.69;40.81
35489;BME280;21602;55.670;37.578;2024-03-22T11:55:14;99034.72;;;9.70;40.74
35489;BME280;21602;55.670;37.578;2024-03-22T11:57:41;99023.59;;;9.73;40.68
35489;BME280;21602;55.670;37.578;2024-03-22T12:00:07;99027.19;;;9.79;40.74
35489;BME280;21602;55.670;37.578;2024-03-22T12:02:40;99015.91;;;9.89;41.09
35489;BME280;21602;55.670;37.578;2024-03-22T12:05:09;99008.47;;;9.91;41.18
35489;BME280;21602;55.670;37.578;2024-03-22T12:07:36;99011.13;;;9.91;40.90
35489;BME280;21602;55.670;37.578;2024-03-22T12:10:04;99005.81;;;9.91;41.05
35489;BME280;21602;55.670;37.578;2024-03-22T12:12:32;99006.84;;;9.90;40.77
35489;BME280;21602;55.670;37.578;2024-03-22T12:14:57;98998.50;;;9.86;39.83
35489;BME280;21602;55.670;37.578;2024-03-22T12:17:23;98989.38;;;9.82;39.67
35489;BME280;21602;55.670;37.578;2024-03-22T12:19:49;98990.53;;;9.86;39.96
35489;BME280;21602;55.670;37.578;2024-03-22T12:22:17;98978.69;;;9.94;39.99
35489;BME280;21602;55.670;37.578;2024-03-22T12:24:42;98977.06;;;9.93;40.26
35489;BME280;21602;55.670;37.578;2024-03-22T12:27:08;98968.66;;;10.01;40.39
35489;BME280;21602;55.670;37.578;2024-03-22T12:29:34;98970.94;;;10.09;40.96
35489;BME280;21602;55.670;37.578;2024-03-22T12:32:02;98947.66;;;10.05;39.79
35489;BME280;21602;55.670;37.578;2024-03-22T12:34:30;98949.34;;;9.94;40.39
35489;BME280;21602;55.670;37.578;2024-03-22T12:36:57;98946.69;;;9.94;40.67
35489;BME280;21602;55.670;37.578;2024-03-22T12:39:24;98942.72;;;9.96;40.62
35489;BME280;21602;55.670;37.578;2024-03-22T12:41:49;98944.34;;;9.97;40.39
35489;BME280;21602;55.670;37.578;2024-03-22T12:44:15;98937.97;;;9.98;41.37
35489;BME280;21602;55.670;37.578;2024-03-22T12:46:41;98928.91;;;9.99;40.62
35489;BME280;21602;55.670;37.578;2024-03-22T12:49:08;98932.97;;;10.02;41.88
35489;BME280;21602;55.670;37.578;2024-03-22T12:51:35;98926.19;;;10.11;42.05
35489;BME280;21602;55.670;37.578;2024-03-22T12:54:02;98926.13;;;10.23;41.02
35489;BME280;21602;55.670;37.578;2024-03-22T12:56:28;98922.84;;;10.33;40.94
35489;BME280;21602;55.670;37.578;2024-03-22T12:58:54;98914.03;;;10.32;40.54
35489;BME280;21602;55.670;37.578;2024-03-22T13:01:21;98916.38;;;10.29;40.72
35489;BME280;21602;55.670;37.578;2024-03-22T13:03:47;98911.84;;;10.29;40.52
35489;BME280;21602;55.670;37.578;2024-03-22T13:06:13;98906.50;;;10.29;41.23